sensor_id;sensor_type;location;lat;lon;timestamp;pressure;altitude;pressure_sealevel;temperature;humidity
15405;BME280;7801;48.124;11.590;2022-09-27T00:01:04;93954.00;;;12.42;81.21
15405;BME280;7801;48.124;11.590;2022-09-27T00:03:35;93953.72;;;12.59;80.37
15405;BME280;7801;48.124;11.590;2022-09-27T00:06:14;93943.66;;;12.24;82.10
15405;BME280;7801;48.124;11.590;2022-09-27T00:08:42;93942.69;;;12.45;82.04
15405;BME280;7801;48.124;11.590;2022-09-27T00:11:19;93935.81;;;12.44;82.64
15405;BME280;7801;48.124;11.590;2022-09-27T00:13:47;93939.28;;;12.32;83.11
15405;BME280;7801;48.124;11.590;2022-09-27T00:16:15;93938.94;;;12.46;82.72
15405;BME280;7801;48.124;11.590;2022-09-27T00:18:43;93928.53;;;12.41;82.65
15405;BME280;7801;48.124;11.590;2022-09-27T00:21:11;93926.13;;;12.51;82.02
15405;BME280;7801;48.124;11.590;2022-09-27T00:23:38;93909.69;;;12.33;82.96
15405;BME280;7801;48.124;11.590;2022-09-27T00:26:06;93909.47;;;12.38;83.24
15405;BME280;7801;48.124;11.590;2022-09-27T00:28:33;93912.16;;;12.54;83.02
15405;BME280;7801;48.124;11.590;2022-09-27T00:30:59;93917.81;;;12.53;83.91
15405;BME280;7801;48.124;11.590;2022-09-27T00:33:25;93916.16;;;12.48;84.07
15405;BME280;7801;48.124;11.590;2022-09-27T00:35:52;93921.31;;;12.41;84.55
15405;BME280;7801;48.124;11.590;2022-09-27T00:38:20;93925.75;;;12.37;85.02
15405;BME280;7801;48.124;11.590;2022-09-27T00:40:46;93919.28;;;12.22;86.21
15405;BME280;7801;48.124;11.590;2022-09-27T00:43:18;93929.06;;;12.06;87.45
15405;BME280;7801;48.124;11.590;2022-09-27T00:45:52;93923.63;;;12.15;87.40
15405;BME280;7801;48.124;11.590;2022-09-27T00:48:23;93924.06;;;12.17;87.08
15405;BME280;7801;48.124;11.590;2022-09-27T00:50:57;93922.34;;;11.96;88.39
15405;BME280;7801;48.124;11.590;2022-09-27T00:53:34;93916.53;;;12.07;88.88
15405;BME280;7801;48.124;11.590;2022-09-27T00:56:20;93915.81;;;11.94;89.01
15405;BME280;7801;48.124;11.590;2022-09-27T00:58:58;93912.94;;;11.99;89.84
15405;BME280;7801;48.124;11.590;2022-09-27T01:01:28;93913.06;;;11.90;90.79
15405;BME280;7801;48.124;11.590;2022-09-27T01:04:07;93913.50;;;11.92;90.84
15405;BME280;7801;48.124;11.590;2022-09-27T01:06:35;93904.88;;;11.83;91.54
15405;BME280;7801;48.124;11.590;2022-09-27T01:09:05;93907.31;;;11.76;91.28
15405;BME280;7801;48.124;11.590;2022-09-27T01:14:28;93899.00;;;11.65;92.76
15405;BME280;7801;48.124;11.590;2022-09-27T01:28:36;93890.50;;;11.84;92.06
15405;BME280;7801;48.124;11.590;2022-09-27T01:42:03;93873.75;;;11.71;94.36
15405;BME280;7801;48.124;11.590;2022-09-27T01:44:44;93870.66;;;11.69;94.50
15405;BME280;7801;48.124;11.590;2022-09-27T01:47:17;93857.59;;;11.64;94.16
15405;BME280;7801;48.124;11.590;2022-09-27T01:50:04;93864.06;;;11.63;94.36
15405;BME280;7801;48.124;11.590;2022-09-27T01:52:46;93866.72;;;11.51;95.23
15405;BME280;7801;48.124;11.590;2022-09-27T01:55:15;93869.72;;;11.50;95.31
15405;BME280;7801;48.124;11.590;2022-09-27T01:57:48;93873.13;;;11.62;94.90
15405;BME280;7801;48.124;11.590;2022-09-27T02:00:16;93867.59;;;11.55;95.53
15405;BME280;7801;48.124;11.590;2022-09-27T02:02:47;93870.69;;;11.45;95.64
15405;BME280;7801;48.124;11.590;2022-09-27T02:05:16;93865.63;;;11.52;96.04
15405;BME280;7801;48.124;11.590;2022-09-27T02:08:04;93853.44;;;11.63;96.94
15405;BME280;7801;48.124;11.590;2022-09-27T02:10:39;93860.78;;;11.30;96.72
15405;BME280;7801;48.124;11.590;2022-09-27T02:13:22;93851.47;;;11.36;96.70
15405;BME280;7801;48.124;11.590;2022-09-27T02:16:02;93852.69;;;11.26;96.24
15405;BME280;7801;48.124;11.590;2022-09-27T02:21:40;93853.91;;;11.41;96.54
15405;BME280;7801;48.124;11.590;2022-09-27T02:24:13;93843.03;;;11.58;96.49
15405;BME280;7801;48.124;11.590;2022-09-27T02:26:44;93844.09;;;11.69;96.15
15405;BME280;7801;48.124;11.590;2022-09-27T02:29:30;93849.00;;;11.55;96.04
15405;BME280;7801;48.124;11.590;2022-09-27T02:32:02;93842.13;;;11.66;96.13
15405;BME280;7801;48.124;11.590;2022-09-27T02:34:30;93848.53;;;11.65;95.89
15405;BME280;7801;48.124;11.590;2022-09-27T02:36:58;93846.47;;;11.59;95.78
15405;BME280;7801;48.124;11.590;2022-09-27T02:39:29;93838.38;;;11.55;96.40
15405;BME280;7801;48.124;11.590;2022-09-27T02:42:01;93845.91;;;11.53;96.11
15405;BME280;7801;48.124;11.590;2022-09-27T02:44:27;93841.28;;;11.50;96.54
15405;BME280;7801;48.124;11.590;2022-09-27T02:50:11;93827.63;;;11.64;96.98
15405;BME280;7801;48.124;11.590;2022-09-27T03:01:11;93812.22;;;11.69;96.90
15405;BME280;7801;48.124;11.590;2022-09-27T03:04:38;93819.44;;;11.81;96.10
15405;BME280;7801;48.124;11.590;2022-09-27T03:06:44;93811.78;;;11.67;96.58
15405;BME280;7801;48.124;11.590;2022-09-27T03:09:23;93801.38;;;11.75;96.61
15405;BME280;7801;48.124;11.590;2022-09-27T03:11:53;93794.31;;;11.79;96.02
15405;BME280;7801;48.124;11.590;2022-09-27T03:14:21;93790.44;;;11.76;96.16
15405;BME280;7801;48.124;11.590;2022-09-27T03:16:46;93796.13;;;11.90;95.86
15405;BME280;7801;48.124;11.590;2022-09-27T03:19:13;93796.03;;;11.87;96.15
15405;BME280;7801;48.124;11.590;2022-09-27T03:21:40;93798.16;;;11.81;95.87
15405;BME280;7801;48.124;11.590;2022-09-27T03:24:08;93792.53;;;11.83;96.11
15405;BME280;7801;48.124;11.590;2022-09-27T03:26:34;93795.34;;;11.90;95.11
15405;BME280;7801;48.124;11.590;2022-09-27T03:29:02;93786.16;;;11.87;95.56
15405;BME280;7801;48.124;11.590;2022-09-27T03:31:29;93784.00;;;11.77;95.36
15405;BME280;7801;48.124;11.590;2022-09-27T03:33:56;93780.41;;;11.85;95.13
15405;BME280;7801;48.124;11.590;2022-09-27T03:36:22;93774.63;;;11.95;94.94
15405;BME280;7801;48.124;11.590;2022-09-27T03:38:48;93773.41;;;11.93;94.60
15405;BME280;7801;48.124;11.590;2022-09-27T03:41:14;93778.06;;;11.96;94.60
15405;BME280;7801;48.124;11.590;2022-09-27T03:43:40;93776.75;;;11.90;94.65
15405;BME280;7801;48.124;11.590;2022-09-27T03:46:07;93770.22;;;11.87;95.10
15405;BME280;7801;48.124;11.590;2022-09-27T03:48:32;93769.50;;;11.75;95.75
15405;BME280;7801;48.124;11.590;2022-09-27T03:50:57;93771.34;;;11.86;95.41
15405;BME280;7801;48.124;11.590;2022-09-27T03:53:24;93766.72;;;11.83;95.22
15405;BME280;7801;48.124;11.590;2022-09-27T03:55:50;93765.09;;;11.94;94.95
15405;BME280;7801;48.124;11.590;2022-09-27T03:58:17;93762.88;;;11.96;94.63
15405;BME280;7801;48.124;11.590;2022-09-27T04:00:44;93761.59;;;11.90;94.61
15405;BME280;7801;48.124;11.590;2022-09-27T04:03:10;93757.28;;;11.86;94.94
15405;BME280;7801;48.124;11.590;2022-09-27T04:05:36;93759.53;;;11.84;94.76
15405;BME280;7801;48.124;11.590;2022-09-27T04:08:02;93766.34;;;11.85;95.09
15405;BME280;7801;48.124;11.590;2022-09-27T04:10:27;93762.09;;;11.80;95.73
15405;BME280;7801;48.124;11.590;2022-09-27T04:12:52;93763.28;;;11.83;95.32
15405;BME280;7801;48.124;11.590;2022-09-27T04:15:18;93756.50;;;11.85;95.16
15405;BME280;7801;48.124;11.590;2022-09-27T04:17:43;93751.34;;;11.77;95.49
15405;BME280;7801;48.124;11.590;2022-09-27T04:20:10;93755.22;;;11.67;95.87
15405;BME280;7801;48.124;11.590;2022-09-27T04:22:40;93759.19;;;11.73;95.57
15405;BME280;7801;48.124;11.590;2022-09-27T04:25:08;93758.22;;;11.78;95.33
15405;BME280;7801;48.124;11.590;2022-09-27T04:27:35;93763.06;;;11.76;95.52
15405;BME280;7801;48.124;11.590;2022-09-27T04:30:07;93769.81;;;11.73;95.70
15405;BME280;7801;48.124;11.590;2022-09-27T04:32:33;93761.41;;;11.71;95.45
15405;BME280;7801;48.124;11.590;2022-09-27T04:34:59;93764.50;;;11.73;95.42
15405;BME280;7801;48.124;11.590;2022-09-27T04:37:43;93760.97;;;11.69;95.53
15405;BME280;7801;48.124;11.590;2022-09-27T04:40:11;93761.97;;;11.64;95.13
15405;BME280;7801;48.124;11.590;2022-09-27T04:42:37;93759.59;;;11.59;95.95
15405;BME280;7801;48.124;11.590;2022-09-27T04:45:03;93770.16;;;11.71;95.26
15405;BME280;7801;48.124;11.590;2022-09-27T04:47:30;93773.59;;;11.72;95.38
15405;BME280;7801;48.124;11.590;2022-09-27T04:49:57;93766.19;;;11.65;95.68
15405;BME280;7801;48.124;11.590;2022-09-27T04:52:23;93771.50;;;11.78;95.26
15405;BME280;7801;48.124;11.590;2022-09-27T04:54:49;93770.38;;;11.66;95.69
15405;BME280;7801;48.124;11.590;2022-09-27T04:57:16;93778.69;;;11.65;95.73
15405;BME280;7801;48.124;11.590;2022-09-27T04:59:42;93778.53;;;11.58;95.88
15405;BME280;7801;48.124;11.590;2022-09-27T05:02:09;93779.91;;;11.67;95.59
15405;BME280;7801;48.124;11.590;2022-09-27T05:04:39;93781.22;;;11.74;95.49
15405;BME280;7801;48.124;11.590;2022-09-27T05:07:04;93771.28;;;11.70;95.10
15405;BME280;7801;48.124;11.590;2022-09-27T05:09:31;93776.44;;;11.51;96.31
15405;BME280;7801;48.124;11.590;2022-09-27T05:11:58;93787.59;;;11.57;96.01
15405;BME280;7801;48.124;11.590;2022-09-27T05:14:24;93784.66;;;11.74;95.53
15405;BME280;7801;48.124;11.590;2022-09-27T05:16:53;93793.19;;;11.40;96.69
15405;BME280;7801;48.124;11.590;2022-09-27T05:19:21;93792.91;;;11.45;96.65
15405;BME280;7801;48.124;11.590;2022-09-27T05:21:46;93791.19;;;11.36;96.90
15405;BME280;7801;48.124;11.590;2022-09-27T05:24:13;93807.47;;;11.11;97.42
15405;BME280;7801;48.124;11.590;2022-09-27T05:26:43;93811.03;;;11.15;96.72
15405;BME280;7801;48.124;11.590;2022-09-27T05:29:14;93810.91;;;11.11;96.64
15405;BME280;7801;48.124;11.590;2022-09-27T05:31:44;93817.00;;;10.87;95.85
15405;BME280;7801;48.124;11.590;2022-09-27T05:34:16;93819.44;;;10.92;95.77
15405;BME280;7801;48.124;11.590;2022-09-27T05:36:48;93825.19;;;10.94;95.90
15405;BME280;7801;48.124;11.590;2022-09-27T05:39:15;93817.00;;;10.99;95.20
15405;BME280;7801;48.124;11.590;2022-09-27T05:41:48;93820.75;;;10.86;96.34
15405;BME280;7801;48.124;11.590;2022-09-27T05:44:16;93822.09;;;10.92;96.02
15405;BME280;7801;48.124;11.590;2022-09-27T05:46:42;93820.53;;;12.83;100.00
15405;BME280;7801;48.124;11.590;2022-09-27T05:49:09;93811.37;;;13.66;100.00
15405;BME280;7801;48.124;11.590;2022-09-27T05:51:38;93817.28;;;14.33;99.18
15405;BME280;7801;48.124;11.590;2022-09-27T05:54:05;93832.88;;;14.73;89.78
15405;BME280;7801;48.124;11.590;2022-09-27T05:56:31;93828.66;;;15.22;85.55
15405;BME280;7801;48.124;11.590;2022-09-27T05:58:57;93824.69;;;15.61;82.63
15405;BME280;7801;48.124;11.590;2022-09-27T06:01:23;93825.00;;;15.56;77.60
15405;BME280;7801;48.124;11.590;2022-09-27T06:03:54;93837.97;;;15.84;79.14
15405;BME280;7801;48.124;11.590;2022-09-27T06:06:20;93845.69;;;15.89;76.89
15405;BME280;7801;48.124;11.590;2022-09-27T06:08:47;93833.50;;;15.92;76.47
15405;BME280;7801;48.124;11.590;2022-09-27T06:11:14;93841.63;;;16.02;76.16
15405;BME280;7801;48.124;11.590;2022-09-27T06:13:39;93845.91;;;16.07;76.16
15405;BME280;7801;48.124;11.590;2022-09-27T06:16:07;93846.31;;;16.09;75.63
15405;BME280;7801;48.124;11.590;2022-09-27T06:18:34;93847.12;;;16.13;75.06
15405;BME280;7801;48.124;11.590;2022-09-27T06:21:02;93860.81;;;16.08;74.50
15405;BME280;7801;48.124;11.590;2022-09-27T06:23:30;93859.59;;;16.02;73.95
15405;BME280;7801;48.124;11.590;2022-09-27T06:26:02;93865.19;;;15.90;73.17
15405;BME280;7801;48.124;11.590;2022-09-27T06:28:31;93862.09;;;15.88;74.19
15405;BME280;7801;48.124;11.590;2022-09-27T06:30:57;93872.06;;;15.91;73.45
15405;BME280;7801;48.124;11.590;2022-09-27T06:33:25;93878.59;;;15.93;74.55
15405;BME280;7801;48.124;11.590;2022-09-27T06:35:52;93878.38;;;15.75;73.78
15405;BME280;7801;48.124;11.590;2022-09-27T06:38:19;93884.19;;;15.85;74.23
15405;BME280;7801;48.124;11.590;2022-09-27T06:40:47;93873.13;;;16.12;83.98
15405;BME280;7801;48.124;11.590;2022-09-27T06:43:19;93878.31;;;16.32;83.12
15405;BME280;7801;48.124;11.590;2022-09-27T06:45:47;93881.50;;;16.11;76.94
15405;BME280;7801;48.124;11.590;2022-09-27T06:48:14;93882.72;;;16.50;79.07
15405;BME280;7801;48.124;11.590;2022-09-27T06:50:42;93893.69;;;16.72;76.25
15405;BME280;7801;48.124;11.590;2022-09-27T06:53:10;93891.13;;;16.49;76.46
15405;BME280;7801;48.124;11.590;2022-09-27T06:55:39;93888.44;;;16.79;75.22
15405;BME280;7801;48.124;11.590;2022-09-27T06:58:05;93886.44;;;16.72;72.98
15405;BME280;7801;48.124;11.590;2022-09-27T07:00:52;93885.12;;;16.26;68.96
15405;BME280;7801;48.124;11.590;2022-09-27T07:03:21;93888.87;;;14.31;72.54
15405;BME280;7801;48.124;11.590;2022-09-27T07:05:58;93900.88;;;13.67;75.49
15405;BME280;7801;48.124;11.590;2022-09-27T07:08:24;93913.38;;;12.57;81.72
15405;BME280;7801;48.124;11.590;2022-09-27T07:10:50;93919.56;;;12.33;82.69
15405;BME280;7801;48.124;11.590;2022-09-27T07:13:19;93921.75;;;12.43;84.28
15405;BME280;7801;48.124;11.590;2022-09-27T07:15:44;93927.78;;;12.00;84.17
15405;BME280;7801;48.124;11.590;2022-09-27T07:18:11;93929.31;;;12.01;85.06
15405;BME280;7801;48.124;11.590;2022-09-27T07:20:38;93920.69;;;11.92;84.86
15405;BME280;7801;48.124;11.590;2022-09-27T07:23:07;93914.16;;;12.01;84.85
15405;BME280;7801;48.124;11.590;2022-09-27T07:25:34;93918.25;;;11.87;85.65
15405;BME280;7801;48.124;11.590;2022-09-27T07:28:01;93914.94;;;11.90;83.91
15405;BME280;7801;48.124;11.590;2022-09-27T07:30:29;93909.28;;;11.91;83.99
15405;BME280;7801;48.124;11.590;2022-09-27T07:32:58;93910.72;;;12.01;84.50
15405;BME280;7801;48.124;11.590;2022-09-27T07:35:27;93911.72;;;11.96;84.08
15405;BME280;7801;48.124;11.590;2022-09-27T07:37:54;93910.94;;;11.96;84.85
15405;BME280;7801;48.124;11.590;2022-09-27T07:40:24;93914.47;;;12.00;85.76
15405;BME280;7801;48.124;11.590;2022-09-27T07:42:54;93915.38;;;11.92;86.30
15405;BME280;7801;48.124;11.590;2022-09-27T07:45:26;93915.78;;;12.06;86.94
15405;BME280;7801;48.124;11.590;2022-09-27T07:47:53;93917.69;;;11.93;86.15
15405;BME280;7801;48.124;11.590;2022-09-27T07:50:19;93927.88;;;11.91;85.42
15405;BME280;7801;48.124;11.590;2022-09-27T07:52:49;93920.84;;;11.83;86.41
15405;BME280;7801;48.124;11.590;2022-09-27T07:55:17;93924.13;;;11.92;86.01
15405;BME280;7801;48.124;11.590;2022-09-27T07:57:51;93917.69;;;11.93;86.79
15405;BME280;7801;48.124;11.590;2022-09-27T08:00:18;93931.44;;;11.71;86.53
15405;BME280;7801;48.124;11.590;2022-09-27T08:02:48;93928.69;;;11.80;86.27
15405;BME280;7801;48.124;11.590;2022-09-27T08:05:14;93933.53;;;11.90;86.17
15405;BME280;7801;48.124;11.590;2022-09-27T08:07:39;93936.34;;;11.81;86.38
15405;BME280;7801;48.124;11.590;2022-09-27T08:10:07;93936.75;;;11.95;85.70
15405;BME280;7801;48.124;11.590;2022-09-27T08:12:35;93935.50;;;12.05;82.75
15405;BME280;7801;48.124;11.590;2022-09-27T08:15:04;93945.38;;;12.04;83.67
15405;BME280;7801;48.124;11.590;2022-09-27T08:17:30;93955.22;;;11.92;82.36
15405;BME280;7801;48.124;11.590;2022-09-27T08:20:02;93990.88;;;12.03;86.59
15405;BME280;7801;48.124;11.590;2022-09-27T08:22:30;94007.81;;;11.74;88.32
15405;BME280;7801;48.124;11.590;2022-09-27T08:24:55;93994.87;;;11.60;86.92
15405;BME280;7801;48.124;11.590;2022-09-27T08:27:22;94001.47;;;11.30;87.97
15405;BME280;7801;48.124;11.590;2022-09-27T08:29:49;94003.22;;;11.14;88.28
15405;BME280;7801;48.124;11.590;2022-09-27T08:32:16;94010.09;;;10.82;88.61
15405;BME280;7801;48.124;11.590;2022-09-27T08:34:44;94013.75;;;10.89;88.43
15405;BME280;7801;48.124;11.590;2022-09-27T08:37:11;94013.03;;;10.68;88.39
15405;BME280;7801;48.124;11.590;2022-09-27T08:39:36;94013.88;;;10.60;90.48
15405;BME280;7801;48.124;11.590;2022-09-27T08:42:26;94021.59;;;10.53;91.07
15405;BME280;7801;48.124;11.590;2022-09-27T08:45:18;94035.53;;;10.62;92.03
15405;BME280;7801;48.124;11.590;2022-09-27T08:47:59;94011.34;;;10.43;92.99
15405;BME280;7801;48.124;11.590;2022-09-27T08:50:31;94026.94;;;10.65;92.05
15405;BME280;7801;48.124;11.590;2022-09-27T08:55:52;94019.25;;;10.72;92.88
15405;BME280;7801;48.124;11.590;2022-09-27T08:58:32;94014.09;;;10.55;93.88
15405;BME280;7801;48.124;11.590;2022-09-27T09:01:02;94021.59;;;10.53;92.60
15405;BME280;7801;48.124;11.590;2022-09-27T09:03:32;94012.00;;;10.40;92.55
15405;BME280;7801;48.124;11.590;2022-09-27T09:26:31;94010.41;;;11.25;89.46
15405;BME280;7801;48.124;11.590;2022-09-27T09:29:11;94008.34;;;11.31;88.91
15405;BME280;7801;48.124;11.590;2022-09-27T09:34:28;94019.84;;;11.35;86.59
15405;BME280;7801;48.124;11.590;2022-09-27T09:37:04;94015.44;;;11.39;85.61
15405;BME280;7801;48.124;11.590;2022-09-27T09:39:57;94010.25;;;11.55;84.78
15405;BME280;7801;48.124;11.590;2022-09-27T09:42:30;94025.06;;;11.56;84.11
15405;BME280;7801;48.124;11.590;2022-09-27T09:45:17;94028.59;;;11.48;84.31
15405;BME280;7801;48.124;11.590;2022-09-27T09:50:24;94025.53;;;11.58;84.80
15405;BME280;7801;48.124;11.590;2022-09-27T09:52:58;94024.19;;;11.52;83.21
15405;BME280;7801;48.124;11.590;2022-09-27T09:55:31;94027.63;;;11.52;84.81
15405;BME280;7801;48.124;11.590;2022-09-27T09:58:23;94026.34;;;11.25;84.12
15405;BME280;7801;48.124;11.590;2022-09-27T10:00:53;94027.63;;;11.40;84.52
15405;BME280;7801;48.124;11.590;2022-09-27T10:03:21;94041.75;;;11.32;84.50
15405;BME280;7801;48.124;11.590;2022-09-27T10:05:47;94038.00;;;11.45;83.64
15405;BME280;7801;48.124;11.590;2022-09-27T10:08:18;94036.94;;;11.58;83.34
15405;BME280;7801;48.124;11.590;2022-09-27T10:10:45;94044.50;;;11.81;82.55
15405;BME280;7801;48.124;11.590;2022-09-27T10:13:24;94041.47;;;11.70;82.10
15405;BME280;7801;48.124;11.590;2022-09-27T10:16:06;94054.41;;;11.71;82.50
15405;BME280;7801;48.124;11.590;2022-09-27T10:18:35;94058.72;;;11.64;83.43
15405;BME280;7801;48.124;11.590;2022-09-27T10:21:06;94051.09;;;11.75;84.25
15405;BME280;7801;48.124;11.590;2022-09-27T10:26:47;94056.94;;;11.56;86.50
15405;BME280;7801;48.124;11.590;2022-09-27T10:29:34;94069.47;;;11.67;85.70
15405;BME280;7801;48.124;11.590;2022-09-27T10:32:04;94062.59;;;11.54;85.71
15405;BME280;7801;48.124;11.590;2022-09-27T10:34:45;94065.13;;;11.39;86.66
15405;BME280;7801;48.124;11.590;2022-09-27T10:37:25;94074.44;;;11.57;85.70
15405;BME280;7801;48.124;11.590;2022-09-27T10:39:50;94072.94;;;11.35;86.28
15405;BME280;7801;48.124;11.590;2022-09-27T10:42:36;94077.81;;;11.33;85.56
15405;BME280;7801;48.124;11.590;2022-09-27T10:45:30;94093.13;;;11.48;87.95
15405;BME280;7801;48.124;11.590;2022-09-27T10:47:58;94084.34;;;11.35;88.45
15405;BME280;7801;48.124;11.590;2022-09-27T10:50:26;94085.53;;;11.26;88.00
15405;BME280;7801;48.124;11.590;2022-09-27T10:53:15;94101.09;;;11.15;90.70
15405;BME280;7801;48.124;11.590;2022-09-27T10:55:47;94085.41;;;11.22;92.19
15405;BME280;7801;48.124;11.590;2022-09-27T10:58:33;94080.13;;;11.34;92.66
15405;BME280;7801;48.124;11.590;2022-09-27T11:01:21;94068.03;;;11.13;94.55
15405;BME280;7801;48.124;11.590;2022-09-27T11:03:54;94070.50;;;11.30;95.12
15405;BME280;7801;48.124;11.590;2022-09-27T11:06:30;94080.94;;;11.47;95.35
15405;BME280;7801;48.124;11.590;2022-09-27T11:09:21;94073.97;;;11.43;95.19
15405;BME280;7801;48.124;11.590;2022-09-27T11:12:15;94072.22;;;11.59;95.23
15405;BME280;7801;48.124;11.590;2022-09-27T11:14:40;94064.78;;;11.40;94.50
15405;BME280;7801;48.124;11.590;2022-09-27T11:17:18;94073.63;;;11.44;94.02
15405;BME280;7801;48.124;11.590;2022-09-27T11:20:20;94067.25;;;11.57;93.06
15405;BME280;7801;48.124;11.590;2022-09-27T11:32:56;94064.19;;;11.80;87.44
15405;BME280;7801;48.124;11.590;2022-09-27T12:09:54;94040.94;;;11.77;84.46
15405;BME280;7801;48.124;11.590;2022-09-27T12:12:24;94034.19;;;12.03;84.23
15405;BME280;7801;48.124;11.590;2022-09-27T12:15:35;94031.22;;;11.81;85.67
15405;BME280;7801;48.124;11.590;2022-09-27T12:18:30;94035.16;;;11.62;84.39
15405;BME280;7801;48.124;11.590;2022-09-27T12:21:02;94022.09;;;11.69;85.95
15405;BME280;7801;48.124;11.590;2022-09-27T12:23:53;94030.53;;;11.96;86.17
15405;BME280;7801;48.124;11.590;2022-09-27T12:29:13;94043.34;;;12.06;85.96
15405;BME280;7801;48.124;11.590;2022-09-27T12:31:46;94045.03;;;12.11;84.74
15405;BME280;7801;48.124;11.590;2022-09-27T12:34:19;94045.81;;;11.99;86.17
15405;BME280;7801;48.124;11.590;2022-09-27T12:37:18;94049.81;;;11.93;85.26
15405;BME280;7801;48.124;11.590;2022-09-27T12:42:27;94031.75;;;11.98;85.18
15405;BME280;7801;48.124;11.590;2022-09-27T12:44:55;94036.06;;;12.15;84.79
15405;BME280;7801;48.124;11.590;2022-09-27T12:50:18;94029.09;;;11.98;85.99
15405;BME280;7801;48.124;11.590;2022-09-27T12:52:51;94025.19;;;12.08;84.61
15405;BME280;7801;48.124;11.590;2022-09-27T12:55:44;94009.97;;;12.33;83.81
15405;BME280;7801;48.124;11.590;2022-09-27T12:58:31;94023.13;;;12.54;83.28
15405;BME280;7801;48.124;11.590;2022-09-27T13:01:22;94016.13;;;12.61;79.82
15405;BME280;7801;48.124;11.590;2022-09-27T13:09:48;94003.00;;;15.57;86.68
15405;BME280;7801;48.124;11.590;2022-09-27T13:12:21;94002.13;;;15.99;73.32
15405;BME280;7801;48.124;11.590;2022-09-27T13:15:11;93997.56;;;16.29;76.42
15405;BME280;7801;48.124;11.590;2022-09-27T13:22:50;94009.97;;;17.01;66.59
15405;BME280;7801;48.124;11.590;2022-09-27T13:34:52;94018.66;;;14.78;61.03
15405;BME280;7801;48.124;11.590;2022-09-27T13:37:36;94022.06;;;13.73;64.44
15405;BME280;7801;48.124;11.590;2022-09-27T13:40:21;94027.91;;;13.32;65.52
15405;BME280;7801;48.124;11.590;2022-09-27T13:46:14;94024.59;;;12.79;69.47
15405;BME280;7801;48.124;11.590;2022-09-27T13:48:59;94010.13;;;12.64;71.04
15405;BME280;7801;48.124;11.590;2022-09-27T13:51:43;94025.66;;;12.50;71.52
15405;BME280;7801;48.124;11.590;2022-09-27T13:54:38;94025.78;;;12.54;72.13
15405;BME280;7801;48.124;11.590;2022-09-27T13:57:05;94035.91;;;12.36;70.61
15405;BME280;7801;48.124;11.590;2022-09-27T13:59:53;94032.87;;;12.50;71.87
15405;BME280;7801;48.124;11.590;2022-09-27T14:02:30;94034.91;;;12.28;72.44
15405;BME280;7801;48.124;11.590;2022-09-27T14:05:02;94025.37;;;12.27;71.99
15405;BME280;7801;48.124;11.590;2022-09-27T14:07:36;94033.47;;;12.31;71.63
15405;BME280;7801;48.124;11.590;2022-09-27T14:10:05;94025.16;;;12.45;72.63
15405;BME280;7801;48.124;11.590;2022-09-27T14:12:39;94029.75;;;12.60;75.02
15405;BME280;7801;48.124;11.590;2022-09-27T14:15:17;94039.34;;;12.36;74.15
15405;BME280;7801;48.124;11.590;2022-09-27T14:17:44;94035.16;;;12.23;74.96
15405;BME280;7801;48.124;11.590;2022-09-27T14:20:32;94037.62;;;11.92;74.47
15405;BME280;7801;48.124;11.590;2022-09-27T14:23:00;94058.00;;;11.88;74.30
15405;BME280;7801;48.124;11.590;2022-09-27T14:25:29;94059.53;;;11.89;76.41
15405;BME280;7801;48.124;11.590;2022-09-27T14:27:54;94053.34;;;12.09;76.85
15405;BME280;7801;48.124;11.590;2022-09-27T14:30:24;94062.41;;;12.08;75.58
15405;BME280;7801;48.124;11.590;2022-09-27T14:32:54;94066.53;;;12.18;74.69
15405;BME280;7801;48.124;11.590;2022-09-27T14:35:27;94075.72;;;12.20;73.04
15405;BME280;7801;48.124;11.590;2022-09-27T14:38:18;94064.19;;;11.92;73.95
15405;BME280;7801;48.124;11.590;2022-09-27T14:40:57;94070.81;;;11.86;74.14
15405;BME280;7801;48.124;11.590;2022-09-27T14:43:30;94060.97;;;12.11;75.25
15405;BME280;7801;48.124;11.590;2022-09-27T14:46:02;94064.09;;;12.00;74.13
15405;BME280;7801;48.124;11.590;2022-09-27T14:48:38;94055.00;;;11.77;74.37
15405;BME280;7801;48.124;11.590;2022-09-27T14:53:47;94076.78;;;11.70;73.78
15405;BME280;7801;48.124;11.590;2022-09-27T14:56:20;94073.00;;;11.59;74.83
15405;BME280;7801;48.124;11.590;2022-09-27T14:58:49;94067.41;;;11.85;73.71
15405;BME280;7801;48.124;11.590;2022-09-27T15:01:19;94068.91;;;11.74;74.20
15405;BME280;7801;48.124;11.590;2022-09-27T15:03:46;94060.72;;;11.67;74.75
15405;BME280;7801;48.124;11.590;2022-09-27T15:06:19;94061.03;;;11.65;76.79
15405;BME280;7801;48.124;11.590;2022-09-27T15:08:45;94071.06;;;11.81;75.84
15405;BME280;7801;48.124;11.590;2022-09-27T15:11:16;94071.72;;;11.90;74.76
15405;BME280;7801;48.124;11.590;2022-09-27T15:13:48;94066.41;;;12.02;74.99
15405;BME280;7801;48.124;11.590;2022-09-27T15:16:21;94063.09;;;11.93;74.98
15405;BME280;7801;48.124;11.590;2022-09-27T15:19:00;94057.31;;;11.91;75.57
15405;BME280;7801;48.124;11.590;2022-09-27T15:21:36;94054.91;;;11.98;76.10
15405;BME280;7801;48.124;11.590;2022-09-27T15:24:02;94048.16;;;12.00;75.71
15405;BME280;7801;48.124;11.590;2022-09-27T15:26:46;94052.56;;;12.21;75.12
15405;BME280;7801;48.124;11.590;2022-09-27T15:29:22;94047.81;;;12.02;75.63
15405;BME280;7801;48.124;11.590;2022-09-27T15:32:06;94051.13;;;11.87;74.91
15405;BME280;7801;48.124;11.590;2022-09-27T15:34:33;94044.25;;;11.86;76.27
15405;BME280;7801;48.124;11.590;2022-09-27T15:37:01;94043.84;;;11.84;75.49
15405;BME280;7801;48.124;11.590;2022-09-27T15:39:36;94044.94;;;11.83;76.05
15405;BME280;7801;48.124;11.590;2022-09-27T15:42:10;94049.53;;;11.74;76.48
15405;BME280;7801;48.124;11.590;2022-09-27T15:44:48;94045.81;;;11.87;76.23
15405;BME280;7801;48.124;11.590;2022-09-27T15:47:37;94038.47;;;12.08;76.07
15405;BME280;7801;48.124;11.590;2022-09-27T15:52:46;94042.03;;;12.12;75.22
15405;BME280;7801;48.124;11.590;2022-09-27T15:55:18;94028.09;;;12.03;75.19
15405;BME280;7801;48.124;11.590;2022-09-27T15:57:48;94025.87;;;12.17;75.64
15405;BME280;7801;48.124;11.590;2022-09-27T16:00:18;94023.22;;;11.93;74.72